createdAt,value
2017-06-10T00:00:07.963Z,7.27
2017-06-10T00:02:34.763Z,7.60
2017-06-10T00:05:02.243Z,8.30
2017-06-10T00:07:31.623Z,6.80
2017-06-10T00:10:03.649Z,7.47
2017-06-10T00:12:30.298Z,6.80
2017-06-10T00:14:57.386Z,6.93
2017-06-10T00:17:29.953Z,6.57
2017-06-10T00:20:03.005Z,6.27
2017-06-10T00:22:34.513Z,7.67
2017-06-10T00:25:01.023Z,7.77
2017-06-10T00:27:27.753Z,6.27
2017-06-10T00:29:54.301Z,7.00
2017-06-10T00:32:25.988Z,7.10
2017-06-10T00:34:53.361Z,6.70
2017-06-10T00:37:19.814Z,7.10
2017-06-10T00:39:46.274Z,6.80
2017-06-10T00:42:12.712Z,6.50
2017-06-10T00:44:39.323Z,6.50
2017-06-10T00:47:06.136Z,7.50
2017-06-10T00:49:38.291Z,6.50
2017-06-10T00:52:10.048Z,6.70
2017-06-10T00:54:36.553Z,7.03
2017-06-10T00:57:03.601Z,7.07
2017-06-10T00:59:41.044Z,6.77
2017-06-10T01:02:07.384Z,7.47
2017-06-10T01:04:33.983Z,6.83
2017-06-10T01:07:06.405Z,6.40
2017-06-10T01:09:32.733Z,6.47
2017-06-10T01:11:59.733Z,6.17
2017-06-10T01:14:28.268Z,6.03
2017-06-10T01:16:55.720Z,5.83
2017-06-10T01:19:22.305Z,6.70
2017-06-10T01:21:52.289Z,6.77
2017-06-10T01:24:19.518Z,6.43
2017-06-10T01:26:51.191Z,6.07
2017-06-10T01:29:23.783Z,6.47
2017-06-10T01:31:55.750Z,6.00
2017-06-10T01:34:23.059Z,4.93
2017-06-10T01:36:49.590Z,5.70
2017-06-10T01:39:16.264Z,6.50
2017-06-10T01:41:48.073Z,5.60
2017-06-10T01:44:18.617Z,6.80
2017-06-10T01:46:45.008Z,5.80
2017-06-10T01:49:12.336Z,6.33
2017-06-10T01:51:41.792Z,6.80
2017-06-10T01:54:13.485Z,5.27
2017-06-10T01:56:44.990Z,6.17
2017-06-10T01:59:11.571Z,5.53
2017-06-10T02:01:38.066Z,5.47
2017-06-10T02:04:04.496Z,6.03
2017-06-10T02:06:31.702Z,5.47
2017-06-10T02:08:58.279Z,5.33
2017-06-10T02:11:24.700Z,5.97
2017-06-10T02:13:51.456Z,5.37
2017-06-10T02:16:18.027Z,5.40
2017-06-10T02:18:49.600Z,5.00
2017-06-10T02:21:16.052Z,4.83
2017-06-10T02:23:43.054Z,4.67
2017-06-10T02:26:10.151Z,4.90
2017-06-10T02:28:37.158Z,5.13
2017-06-10T02:31:03.814Z,5.93
2017-06-10T02:33:30.596Z,4.90
2017-06-10T02:35:57.150Z,4.63
2017-06-10T02:38:23.646Z,4.63
2017-06-10T02:40:50.140Z,5.23
2017-06-10T02:43:16.557Z,4.10
2017-06-10T02:45:43.856Z,5.60
2017-06-10T02:48:10.363Z,4.97
2017-06-10T02:50:36.785Z,4.70
2017-06-10T02:53:04.278Z,4.27
2017-06-10T02:55:34.558Z,5.17
2017-06-10T02:58:04.265Z,4.73
2017-06-10T03:00:30.642Z,4.20
2017-06-10T03:02:56.975Z,4.10
2017-06-10T03:05:23.480Z,3.47
2017-06-10T03:07:49.998Z,4.47
2017-06-10T03:10:22.725Z,4.03
2017-06-10T03:12:50.180Z,3.97
2017-06-10T03:15:17.624Z,4.80
2017-06-10T03:17:44.389Z,4.50
2017-06-10T03:20:11.335Z,3.97
2017-06-10T03:22:38.829Z,3.70
2017-06-10T03:25:05.241Z,4.10
2017-06-10T03:27:33.531Z,4.47
2017-06-10T03:29:59.884Z,3.90
2017-06-10T03:32:31.763Z,3.90
2017-06-10T03:34:58.411Z,3.97
2017-06-10T03:37:25.495Z,4.07
2017-06-10T03:39:51.831Z,3.70
2017-06-10T03:42:18.253Z,3.77
2017-06-10T03:44:45.193Z,3.80
2017-06-10T03:47:11.625Z,3.40
2017-06-10T03:49:38.042Z,3.80
2017-06-10T03:52:04.447Z,3.60
2017-06-10T03:54:30.759Z,3.67
2017-06-10T03:56:57.090Z,3.20
2017-06-10T03:59:23.459Z,3.17
2017-06-10T04:01:49.996Z,3.50
2017-06-10T04:04:16.341Z,3.60
2017-06-10T04:06:42.690Z,4.83
2017-06-10T04:09:09.029Z,4.03
2017-06-10T04:11:35.395Z,4.30
2017-06-10T04:14:01.756Z,4.37
2017-06-10T04:16:28.084Z,4.43
2017-06-10T04:18:54.420Z,3.83
2017-06-10T04:21:20.744Z,4.00
2017-06-10T04:23:47.083Z,4.13
2017-06-10T04:26:13.414Z,4.17
2017-06-10T04:28:39.775Z,3.80
2017-06-10T04:31:06.120Z,3.70
2017-06-10T04:33:32.472Z,4.50
2017-06-10T04:35:58.800Z,3.50
2017-06-10T04:38:25.173Z,4.43
2017-06-10T04:40:51.538Z,4.03
2017-06-10T04:43:17.859Z,4.63
2017-06-10T04:45:44.211Z,5.60
2017-06-10T04:48:10.552Z,4.70
2017-06-10T04:50:36.893Z,4.77
2017-06-10T04:53:03.906Z,4.60
2017-06-10T04:55:30.276Z,4.50
2017-06-10T04:58:01.057Z,4.57
2017-06-10T05:00:27.570Z,4.40
2017-06-10T05:02:53.935Z,4.50
2017-06-10T05:05:21.006Z,4.60
2017-06-10T05:07:47.353Z,4.10
2017-06-10T05:10:13.690Z,4.23
2017-06-10T05:12:40.026Z,5.23
2017-06-10T05:15:06.366Z,5.40
2017-06-10T05:17:32.683Z,4.63
2017-06-10T05:19:59.021Z,4.37
2017-06-10T05:22:25.380Z,3.90
2017-06-10T05:24:51.776Z,4.17
2017-06-10T05:27:18.122Z,4.30
2017-06-10T05:29:44.466Z,4.40
2017-06-10T05:32:10.795Z,4.70
2017-06-10T05:34:37.204Z,4.40
2017-06-10T05:37:03.581Z,4.67
2017-06-10T05:39:29.898Z,4.47
2017-06-10T05:41:56.240Z,4.50
2017-06-10T05:44:22.639Z,3.90
2017-06-10T05:46:49.000Z,3.97
2017-06-10T05:49:15.353Z,4.00
2017-06-10T05:51:41.733Z,4.50
2017-06-10T05:54:08.097Z,3.50
2017-06-10T05:56:34.431Z,4.07
2017-06-10T05:59:00.779Z,4.50
2017-06-10T06:01:27.158Z,3.93
2017-06-10T06:03:53.461Z,3.60
2017-06-10T06:06:19.809Z,4.53
2017-06-10T06:08:46.145Z,3.97
2017-06-10T06:11:12.498Z,4.03
2017-06-10T06:13:38.848Z,3.03
2017-06-10T06:16:05.174Z,3.17
2017-06-10T06:18:31.505Z,4.00
2017-06-10T06:20:57.854Z,3.67
2017-06-10T06:23:24.241Z,3.10
2017-06-10T06:25:50.579Z,3.40
2017-06-10T06:28:16.933Z,3.77
2017-06-10T06:30:43.288Z,3.40
2017-06-10T06:33:09.600Z,3.57
2017-06-10T06:35:35.923Z,3.90
2017-06-10T06:38:02.250Z,3.83
2017-06-10T06:40:28.610Z,3.73
2017-06-10T06:42:54.966Z,3.30
2017-06-10T06:45:21.324Z,3.33
2017-06-10T06:47:47.671Z,3.23
2017-06-10T06:50:14.019Z,4.37
2017-06-10T06:52:40.411Z,3.40
2017-06-10T06:55:06.747Z,3.87
2017-06-10T06:57:33.085Z,4.17
2017-06-10T06:59:59.464Z,3.40
2017-06-10T07:02:25.791Z,3.07
2017-06-10T07:04:52.129Z,3.23
2017-06-10T07:07:18.526Z,3.30
2017-06-10T07:09:44.862Z,2.93
2017-06-10T07:12:11.190Z,3.20
2017-06-10T07:14:37.523Z,3.30
2017-06-10T07:17:03.881Z,3.07
2017-06-10T07:19:30.213Z,2.83
2017-06-10T07:21:56.548Z,3.00
2017-06-10T07:24:22.908Z,3.20
2017-06-10T07:26:49.263Z,3.10
2017-06-10T07:29:15.632Z,3.83
2017-06-10T07:31:41.973Z,3.70
2017-06-10T07:34:08.311Z,3.83
2017-06-10T07:36:34.725Z,2.83
2017-06-10T07:39:01.056Z,3.13
2017-06-10T07:41:27.382Z,3.70
2017-06-10T07:43:53.710Z,3.33
2017-06-10T07:46:20.125Z,3.77
2017-06-10T07:48:46.625Z,3.77
2017-06-10T07:51:13.101Z,3.63
2017-06-10T07:53:39.431Z,3.17
2017-06-10T07:56:05.750Z,2.80
2017-06-10T07:58:32.097Z,3.00
2017-06-10T08:00:58.434Z,3.10
2017-06-10T08:03:24.777Z,3.23
2017-06-10T08:05:51.112Z,3.03
2017-06-10T08:08:17.438Z,2.57
2017-06-10T08:13:01.557Z,1.87
2017-06-10T08:15:27.917Z,2.30
2017-06-10T08:17:54.248Z,2.60
2017-06-10T08:20:20.593Z,1.70
2017-06-10T08:22:46.914Z,2.33
2017-06-10T08:25:13.232Z,2.30
2017-06-10T08:27:39.606Z,2.10
2017-06-10T08:30:05.954Z,1.90
2017-06-10T08:32:33.040Z,2.00
2017-06-10T08:34:59.370Z,1.97
2017-06-10T08:37:25.740Z,1.77
2017-06-10T08:39:52.090Z,2.50
2017-06-10T08:42:18.410Z,2.20
2017-06-10T08:44:44.729Z,1.73
2017-06-10T08:47:11.062Z,2.03
2017-06-10T08:49:37.431Z,1.77
2017-06-10T08:52:03.754Z,1.90
2017-06-10T08:54:30.082Z,2.12
2017-06-10T08:56:56.454Z,2.10
2017-06-10T08:59:22.801Z,2.87
2017-06-10T09:01:49.132Z,2.00
2017-06-10T09:04:15.469Z,1.83
2017-06-10T09:06:41.817Z,2.00
2017-06-10T09:09:08.169Z,1.90
2017-06-10T09:11:34.513Z,2.73
2017-06-10T09:14:00.865Z,2.40
2017-06-10T09:16:28.159Z,2.73
2017-06-10T09:18:54.482Z,1.87
2017-06-10T09:21:20.824Z,1.80
2017-06-10T09:23:47.161Z,2.93
2017-06-10T09:26:13.519Z,2.43
2017-06-10T09:28:39.859Z,2.40
2017-06-10T09:31:06.209Z,2.37
2017-06-10T09:33:32.567Z,1.87
2017-06-10T09:35:58.922Z,2.90
2017-06-10T09:38:25.251Z,2.37
2017-06-10T09:40:51.599Z,2.23
2017-06-10T09:43:17.935Z,1.93
2017-06-10T09:45:44.270Z,1.80
2017-06-10T09:48:10.601Z,2.10
2017-06-10T09:50:36.939Z,2.10
2017-06-10T09:53:03.303Z,2.30
2017-06-10T09:55:29.713Z,1.70
2017-06-10T09:57:56.058Z,1.30
2017-06-10T10:00:22.369Z,1.47
2017-06-10T10:02:48.721Z,2.00
2017-06-10T10:05:15.065Z,1.90
2017-06-10T10:07:41.449Z,1.70
2017-06-10T10:10:07.796Z,1.93
2017-06-10T10:12:34.138Z,2.50
2017-06-10T10:15:00.485Z,2.40
2017-06-10T10:17:26.837Z,1.93
2017-06-10T10:19:53.168Z,2.70
2017-06-10T10:22:19.633Z,1.70
2017-06-10T10:24:45.982Z,1.80
2017-06-10T10:27:12.321Z,1.50
2017-06-10T10:29:38.691Z,2.20
2017-06-10T10:32:05.157Z,1.57
2017-06-10T10:34:31.490Z,1.30
2017-06-10T10:36:57.838Z,1.67
2017-06-10T10:39:24.158Z,1.60
2017-06-10T10:41:50.629Z,1.60
2017-06-10T10:44:16.947Z,1.70
2017-06-10T10:46:43.305Z,1.93
2017-06-10T10:49:09.621Z,1.87
2017-06-10T10:51:36.057Z,1.60
2017-06-10T10:54:02.407Z,1.40
2017-06-10T10:56:28.719Z,1.80
2017-06-10T10:58:55.173Z,1.43
2017-06-10T11:01:22.288Z,1.73
2017-06-10T11:03:48.682Z,1.63
2017-06-10T11:06:15.295Z,1.40
2017-06-10T11:08:41.668Z,2.33
2017-06-10T11:11:09.298Z,1.80
2017-06-10T11:13:36.717Z,1.50
2017-06-10T11:16:03.627Z,1.90
2017-06-10T11:18:29.997Z,2.00
2017-06-10T11:20:56.338Z,1.30
2017-06-10T11:23:22.694Z,1.70
2017-06-10T11:25:49.086Z,1.50
2017-06-10T11:28:15.455Z,1.30
2017-06-10T11:30:41.870Z,1.30
2017-06-10T11:33:08.208Z,1.60
2017-06-10T11:35:34.558Z,1.50
2017-06-10T11:38:00.938Z,1.93
2017-06-10T11:40:27.355Z,1.70
2017-06-10T11:42:53.768Z,1.53
2017-06-10T11:45:20.142Z,1.70
2017-06-10T11:47:46.497Z,1.50
2017-06-10T11:50:12.850Z,1.60
2017-06-10T11:52:39.182Z,1.80
2017-06-10T11:55:05.576Z,1.53
2017-06-10T11:57:31.991Z,1.07
2017-06-10T11:59:58.361Z,1.20
2017-06-10T12:02:24.708Z,1.27
2017-06-10T12:04:51.072Z,1.80
2017-06-10T12:07:17.599Z,1.60
2017-06-10T12:09:45.579Z,1.70
2017-06-10T12:12:12.173Z,1.83
2017-06-10T12:14:38.932Z,1.73
2017-06-10T12:17:05.325Z,1.73
2017-06-10T12:19:31.966Z,1.37
2017-06-10T12:21:58.497Z,1.40
2017-06-10T12:24:24.942Z,1.70
2017-06-10T12:26:51.512Z,1.40
2017-06-10T12:29:17.906Z,1.93
2017-06-10T12:31:44.564Z,1.83
2017-06-10T12:34:11.021Z,2.17
2017-06-10T12:36:37.367Z,1.97
2017-06-10T12:39:03.854Z,1.83
2017-06-10T12:41:30.215Z,2.17
2017-06-10T12:43:56.524Z,1.30
2017-06-10T12:46:22.990Z,1.70
2017-06-10T12:48:49.810Z,1.80
2017-06-10T12:51:16.124Z,1.83
2017-06-10T12:53:42.455Z,1.93
2017-06-10T12:56:09.069Z,1.97
2017-06-10T12:58:35.473Z,1.90
2017-06-10T13:01:02.290Z,2.10
2017-06-10T13:03:28.692Z,1.90
2017-06-10T13:05:55.002Z,2.40
2017-06-10T13:08:21.369Z,1.93
2017-06-10T13:10:47.705Z,1.80
2017-06-10T13:13:14.053Z,2.40
2017-06-10T13:15:40.362Z,1.97
2017-06-10T13:18:06.687Z,1.83
2017-06-10T13:20:33.153Z,2.40
2017-06-10T13:22:59.524Z,2.10
2017-06-10T13:25:25.848Z,2.10
2017-06-10T13:27:52.179Z,2.30
2017-06-10T13:30:18.514Z,2.10
2017-06-10T13:32:44.875Z,2.90
2017-06-10T13:35:11.194Z,2.77
2017-06-10T13:37:37.548Z,2.73
2017-06-10T13:40:03.954Z,1.70
2017-06-10T13:42:30.346Z,2.87
2017-06-10T13:44:56.694Z,2.20
2017-06-10T13:47:23.069Z,2.50
2017-06-10T13:49:49.521Z,1.80
2017-06-10T13:52:15.877Z,2.20
2017-06-10T13:54:42.220Z,2.03
2017-06-10T13:57:08.562Z,1.93
2017-06-10T13:59:34.965Z,1.60
2017-06-10T14:02:01.396Z,2.33
2017-06-10T14:04:27.740Z,2.10
2017-06-10T14:06:54.101Z,2.30
2017-06-10T14:09:20.475Z,2.37
2017-06-10T14:11:46.854Z,2.93
2017-06-10T14:14:13.232Z,2.20
2017-06-10T14:16:39.604Z,1.90
2017-06-10T14:19:05.944Z,2.37
2017-06-10T14:21:32.353Z,2.43
2017-06-10T14:23:58.697Z,2.10
2017-06-10T14:26:25.071Z,1.77
2017-06-10T14:28:51.427Z,1.93
2017-06-10T14:31:17.807Z,3.03
2017-06-10T14:33:44.163Z,1.80
2017-06-10T14:36:10.584Z,2.83
2017-06-10T14:38:36.930Z,2.53
2017-06-10T14:41:03.273Z,2.23
2017-06-10T14:43:29.626Z,2.10
2017-06-10T14:45:55.984Z,2.00
2017-06-10T14:48:22.333Z,2.20
2017-06-10T14:50:49.325Z,2.37
2017-06-10T14:53:15.694Z,2.27
2017-06-10T14:55:42.161Z,1.70
2017-06-10T14:58:08.506Z,2.00
2017-06-10T15:00:34.909Z,2.20
2017-06-10T15:03:01.679Z,1.90
2017-06-10T15:05:28.617Z,1.93
2017-06-10T15:07:54.995Z,1.90
2017-06-10T15:10:21.533Z,2.30
2017-06-10T15:12:48.250Z,1.90
2017-06-10T15:15:19.322Z,2.17
2017-06-10T15:17:45.643Z,1.93
2017-06-10T15:20:12.089Z,1.63
2017-06-10T15:22:38.432Z,2.20
2017-06-10T15:25:04.762Z,1.97
2017-06-10T15:27:31.143Z,2.50
2017-06-10T15:29:57.486Z,1.80
2017-06-10T15:32:23.828Z,2.30
2017-06-10T15:34:50.169Z,3.00
2017-06-10T15:37:16.501Z,2.20
2017-06-10T15:39:42.855Z,2.10
2017-06-10T15:42:09.213Z,2.00
2017-06-10T15:44:35.570Z,1.53
2017-06-10T15:47:01.942Z,1.93
2017-06-10T15:49:28.280Z,1.90
2017-06-10T15:51:54.602Z,2.10
2017-06-10T15:54:20.962Z,2.43
2017-06-10T15:56:47.319Z,2.57
2017-06-10T15:59:13.634Z,1.80
2017-06-10T16:01:40.010Z,2.07
2017-06-10T16:04:06.359Z,1.93
2017-06-10T16:06:32.711Z,1.83
2017-06-10T16:08:59.061Z,1.90
2017-06-10T16:11:25.442Z,1.70
2017-06-10T16:13:51.838Z,1.60
2017-06-10T16:16:18.275Z,1.70
2017-06-10T16:18:44.623Z,1.80
2017-06-10T16:21:10.955Z,1.60
2017-06-10T16:23:37.301Z,1.70
2017-06-10T16:26:03.642Z,2.10
2017-06-10T16:28:30.007Z,1.80
2017-06-10T16:30:56.329Z,1.60
2017-06-10T16:33:22.688Z,1.70
2017-06-10T16:35:49.009Z,1.80
2017-06-10T16:38:15.349Z,2.40
2017-06-10T16:40:41.691Z,2.20
2017-06-10T16:43:08.139Z,2.30
2017-06-10T16:45:34.468Z,2.43
2017-06-10T16:48:00.804Z,2.60
2017-06-10T16:50:27.161Z,1.90
2017-06-10T16:52:53.599Z,5.10
2017-06-10T16:55:19.949Z,2.07
2017-06-10T17:06:33.332Z,2.40
2017-06-10T17:11:36.649Z,2.00
2017-06-10T17:14:03.077Z,1.90
2017-06-10T17:16:29.402Z,1.80
2017-06-10T17:18:55.753Z,2.03
2017-06-10T17:21:22.099Z,2.33
2017-06-10T17:23:48.473Z,2.07
2017-06-10T17:26:14.802Z,2.20
2017-06-10T17:28:41.133Z,2.23
2017-06-10T17:31:07.477Z,2.13
2017-06-10T17:33:33.809Z,2.00
2017-06-10T17:36:00.170Z,1.83
2017-06-10T17:38:26.534Z,1.90
2017-06-10T17:40:52.878Z,1.90
2017-06-10T17:43:19.236Z,2.33
2017-06-10T17:45:45.582Z,1.63
2017-06-10T17:48:11.979Z,2.30
2017-06-10T17:50:38.358Z,1.90
2017-06-10T17:53:04.702Z,2.70
2017-06-10T17:55:31.077Z,2.10
2017-06-10T17:57:57.477Z,1.70
2017-06-10T18:00:23.823Z,2.57
2017-06-10T18:02:50.196Z,2.53
2017-06-10T18:05:16.533Z,2.33
2017-06-10T18:07:49.147Z,2.33
2017-06-10T18:10:15.458Z,1.90
2017-06-10T18:12:41.783Z,3.00
2017-06-10T18:15:08.126Z,2.33
2017-06-10T18:17:34.542Z,2.80
2017-06-10T18:20:00.983Z,2.70
2017-06-10T18:22:27.402Z,2.60
2017-06-10T18:24:53.817Z,2.90
2017-06-10T18:27:20.200Z,3.30
2017-06-10T18:29:46.567Z,2.10
2017-06-10T18:32:12.962Z,3.10
2017-06-10T18:34:39.306Z,3.17
2017-06-10T18:37:05.643Z,2.40
2017-06-10T18:39:31.977Z,2.63
2017-06-10T18:41:58.328Z,2.80
2017-06-10T18:44:24.727Z,3.17
2017-06-10T18:46:51.042Z,2.60
2017-06-10T18:49:17.358Z,2.20
2017-06-10T18:51:43.662Z,2.30
2017-06-10T18:54:09.998Z,2.60
2017-06-10T18:56:36.432Z,2.60
2017-06-10T18:59:02.855Z,3.00
2017-06-10T19:01:29.204Z,2.93
2017-06-10T19:03:55.523Z,2.90
2017-06-10T19:06:28.562Z,2.90
2017-06-10T19:09:01.613Z,2.80
2017-06-10T19:11:27.911Z,2.60
2017-06-10T19:13:54.216Z,2.70
2017-06-10T19:16:20.545Z,3.40
2017-06-10T19:18:46.885Z,2.27
2017-06-10T19:21:13.215Z,2.90
2017-06-10T19:23:39.552Z,2.57
2017-06-10T19:26:05.873Z,2.77
2017-06-10T19:28:32.220Z,3.17
2017-06-10T19:30:58.579Z,3.33
2017-06-10T19:33:24.920Z,6.70
2017-06-10T19:35:51.253Z,4.60
2017-06-10T19:38:17.600Z,4.30
2017-06-10T19:40:43.998Z,4.43
2017-06-10T19:43:10.339Z,4.00
2017-06-10T19:45:36.689Z,3.97
2017-06-10T19:48:03.041Z,4.60
2017-06-10T19:50:29.372Z,5.00
2017-06-10T19:52:55.714Z,5.10
2017-06-10T19:55:22.082Z,4.97
2017-06-10T19:57:48.409Z,4.90
2017-06-10T20:00:14.741Z,4.87
2017-06-10T20:02:41.071Z,3.80
2017-06-10T20:05:07.423Z,4.50
2017-06-10T20:07:33.752Z,5.40
2017-06-10T20:10:00.087Z,4.97
2017-06-10T20:12:26.450Z,4.77
2017-06-10T20:14:53.966Z,4.50
2017-06-10T20:17:20.320Z,5.37
2017-06-10T20:19:46.666Z,5.40
2017-06-10T20:22:13.004Z,5.20
2017-06-10T20:24:39.351Z,5.50
2017-06-10T20:27:05.709Z,4.13
2017-06-10T20:29:32.020Z,5.23
2017-06-10T20:31:58.350Z,4.80
2017-06-10T20:34:24.719Z,4.27
2017-06-10T20:36:51.074Z,4.17
2017-06-10T20:39:17.469Z,3.73
2017-06-10T20:41:43.843Z,8.13
2017-06-10T20:44:10.191Z,13.30
2017-06-10T20:46:36.576Z,10.80
2017-06-10T20:49:02.926Z,7.77
2017-06-10T20:51:29.277Z,6.60
2017-06-10T20:53:55.629Z,5.10
2017-06-10T20:56:21.993Z,5.00
2017-06-10T20:58:48.428Z,5.60
2017-06-10T21:01:14.777Z,4.73
2017-06-10T21:03:41.110Z,4.97
2017-06-10T21:06:07.471Z,5.97
2017-06-10T21:08:33.827Z,4.80
2017-06-10T21:11:00.178Z,4.50
2017-06-10T21:13:26.513Z,4.97
2017-06-10T21:15:52.827Z,4.80
2017-06-10T21:18:19.186Z,4.63
2017-06-10T21:20:45.508Z,4.20
2017-06-10T21:23:11.845Z,4.53
2017-06-10T21:25:38.197Z,5.10
2017-06-10T21:28:04.576Z,4.93
2017-06-10T21:30:30.925Z,4.53
2017-06-10T21:32:57.253Z,5.37
2017-06-10T21:35:23.649Z,4.47
2017-06-10T21:37:50.060Z,5.03
2017-06-10T21:40:16.385Z,5.00
2017-06-10T21:42:42.856Z,4.93
2017-06-10T21:45:09.227Z,5.20
2017-06-10T21:47:35.600Z,4.73
2017-06-10T21:50:02.033Z,4.30
2017-06-10T21:52:28.360Z,7.77
2017-06-10T21:54:54.704Z,5.47
2017-06-10T21:57:21.030Z,4.90
2017-06-10T21:59:47.379Z,4.63
2017-06-10T22:02:13.697Z,4.57
2017-06-10T22:04:40.110Z,5.60
2017-06-10T22:07:06.419Z,4.67
2017-06-10T22:09:32.747Z,4.80
2017-06-10T22:11:59.133Z,5.43
2017-06-10T22:14:25.461Z,5.43
2017-06-10T22:16:51.838Z,5.70
2017-06-10T22:19:18.158Z,4.83
2017-06-10T22:21:44.577Z,4.83
2017-06-10T22:24:10.908Z,5.30
2017-06-10T22:26:37.245Z,4.90
2017-06-10T22:29:03.583Z,5.80
2017-06-10T22:31:29.929Z,4.90
2017-06-10T22:33:56.283Z,6.00
2017-06-10T22:36:22.616Z,5.20
2017-06-10T22:38:48.975Z,5.30
2017-06-10T22:41:15.355Z,5.70
2017-06-10T22:43:41.692Z,5.00
2017-06-10T22:46:08.029Z,5.93
2017-06-10T22:48:34.364Z,5.50
2017-06-10T22:51:00.696Z,5.73
2017-06-10T22:53:27.078Z,5.73
2017-06-10T22:55:53.402Z,5.17
2017-06-10T22:58:19.850Z,5.87
2017-06-10T23:00:46.211Z,5.70
2017-06-10T23:03:12.609Z,5.60
2017-06-10T23:05:38.942Z,5.77
2017-06-10T23:08:05.274Z,6.03
2017-06-10T23:10:31.770Z,5.20
2017-06-10T23:12:58.100Z,6.13
2017-06-10T23:15:24.431Z,5.60
2017-06-10T23:17:50.757Z,6.63
2017-06-10T23:20:17.099Z,5.00
2017-06-10T23:22:43.459Z,5.43
2017-06-10T23:25:09.830Z,5.60
2017-06-10T23:27:36.183Z,5.13
2017-06-10T23:30:02.517Z,6.00
2017-06-10T23:32:28.857Z,6.00
2017-06-10T23:34:55.188Z,5.83
2017-06-10T23:37:21.532Z,5.93
2017-06-10T23:39:47.860Z,4.73
2017-06-10T23:42:14.179Z,5.60
2017-06-10T23:44:40.526Z,5.67
2017-06-10T23:47:06.889Z,5.63
2017-06-10T23:49:33.230Z,5.10
2017-06-10T23:51:59.572Z,5.30
2017-06-10T23:54:25.927Z,6.00
2017-06-10T23:56:52.330Z,9.00
2017-06-10T23:59:18.672Z,24.23
